createdAt,value
2018-05-03T00:01:43.930Z,94816.03
2018-05-03T00:04:09.940Z,94812.09
2018-05-03T00:06:35.886Z,94819.97
2018-05-03T00:09:01.901Z,94814.66
2018-05-03T00:11:27.888Z,94808.55
2018-05-03T00:13:53.841Z,94814.66
2018-05-03T00:16:19.843Z,94808.33
2018-05-03T00:18:45.855Z,94812.47
2018-05-03T00:21:11.807Z,94812.88
2018-05-03T00:23:37.819Z,94816.44
2018-05-03T00:26:03.765Z,94817.82
2018-05-03T00:28:29.778Z,94818.59
2018-05-03T00:30:55.758Z,94819.20
2018-05-03T00:33:21.748Z,94817.42
2018-05-03T00:35:47.735Z,94819.20
2018-05-03T00:38:13.712Z,94821.16
2018-05-03T00:40:39.698Z,94816.03
2018-05-03T00:43:05.682Z,94817.82
2018-05-03T00:45:31.693Z,94815.23
2018-05-03T00:47:57.642Z,94805.77
2018-05-03T00:50:23.648Z,94807.35
2018-05-03T00:52:49.596Z,94799.64
2018-05-03T00:55:15.567Z,94795.50
2018-05-03T00:57:41.575Z,94800.63
2018-05-03T01:00:07.561Z,94795.50
2018-05-03T01:05:17.457Z,94796.48
2018-05-03T01:07:43.435Z,94792.95
2018-05-03T01:10:09.454Z,94798.87
2018-05-03T01:12:53.901Z,94792.95
2018-05-03T01:15:19.924Z,94793.34
2018-05-03T01:17:45.907Z,94794.33
2018-05-03T01:20:11.885Z,94794.73
2018-05-03T01:22:37.904Z,94786.44
2018-05-03T01:25:03.885Z,94779.31
2018-05-03T01:27:29.830Z,94779.54
2018-05-03T01:29:55.844Z,94778.73
2018-05-03T01:32:21.816Z,94785.06
2018-05-03T01:34:47.763Z,94787.02
2018-05-03T01:37:13.775Z,94782.48
2018-05-03T01:39:39.716Z,94778.34
2018-05-03T01:42:05.734Z,94773.22
2018-05-03T01:44:31.680Z,94769.47
2018-05-03T01:46:57.666Z,94767.86
2018-05-03T01:49:23.665Z,94755.84
2018-05-03T01:51:49.649Z,94761.77
2018-05-03T01:54:15.592Z,94764.13
2018-05-03T01:56:41.579Z,94765.50
2018-05-03T01:59:07.591Z,94772.81
2018-05-03T02:01:33.584Z,94772.41
2018-05-03T02:03:59.528Z,94766.89
2018-05-03T02:06:25.517Z,94765.50
2018-05-03T02:08:51.535Z,94759.58
2018-05-03T02:11:17.522Z,94760.96
2018-05-03T02:13:43.529Z,94756.82
2018-05-03T02:16:09.479Z,94754.64
2018-05-03T02:18:35.456Z,94746.75
2018-05-03T02:21:01.512Z,94746.35
2018-05-03T02:23:27.468Z,94743.80
2018-05-03T02:25:53.451Z,94738.67
2018-05-03T02:28:19.418Z,94743.99
2018-05-03T02:30:45.407Z,94746.35
2018-05-03T02:33:11.422Z,94744.97
2018-05-03T02:35:37.363Z,94743.99
2018-05-03T02:38:03.376Z,94745.58
2018-05-03T02:40:29.322Z,94748.92
2018-05-03T02:42:55.331Z,94747.94
2018-05-03T02:45:21.307Z,94745.58
2018-05-03T02:47:47.350Z,94747.53
2018-05-03T02:50:13.300Z,94753.86
2018-05-03T02:52:39.306Z,94750.70
2018-05-03T02:55:05.285Z,94745.18
2018-05-03T02:57:31.258Z,94749.32
2018-05-03T02:59:57.239Z,94751.10
2018-05-03T03:02:23.266Z,94751.10
2018-05-03T03:04:49.221Z,94746.73
2018-05-03T03:07:15.169Z,94747.94
2018-05-03T03:09:41.184Z,94754.84
2018-05-03T03:12:07.134Z,94746.33
2018-05-03T03:14:33.118Z,94753.06
2018-05-03T03:16:59.131Z,94752.25
2018-05-03T03:19:25.085Z,94752.66
2018-05-03T03:21:51.060Z,94762.90
2018-05-03T03:24:17.045Z,94758.39
2018-05-03T03:26:43.024Z,94758.76
2018-05-03T03:29:09.003Z,94767.04
2018-05-03T03:31:35.045Z,94769.62
2018-05-03T03:34:00.987Z,94770.41
2018-05-03T03:36:26.991Z,94771.19
2018-05-03T03:38:52.938Z,94767.65
2018-05-03T03:41:18.930Z,94773.17
2018-05-03T03:43:44.901Z,94775.33
2018-05-03T03:46:10.877Z,94772.56
2018-05-03T03:48:36.893Z,94768.05
2018-05-03T03:51:02.872Z,94768.05
2018-05-03T03:53:28.814Z,94767.04
2018-05-03T03:55:54.832Z,94768.42
2018-05-03T03:58:20.835Z,94765.46
2018-05-03T04:00:46.876Z,94768.64
2018-05-03T04:03:12.859Z,94758.58
2018-05-03T04:05:38.805Z,94765.08
2018-05-03T04:08:04.930Z,94761.17
2018-05-03T04:10:30.937Z,94758.18
2018-05-03T04:12:56.891Z,94754.84
2018-05-03T04:15:22.871Z,94755.44
2018-05-03T04:17:48.883Z,94748.36
2018-05-03T04:20:14.821Z,94757.45
2018-05-03T04:22:40.898Z,94754.28
2018-05-03T04:25:06.925Z,94754.08
2018-05-03T04:27:32.918Z,94753.88
2018-05-03T04:29:58.905Z,94750.55
2018-05-03T04:32:24.888Z,94749.16
2018-05-03T04:34:50.900Z,94748.16
2018-05-03T04:37:16.851Z,94753.50
2018-05-03T04:39:42.827Z,94752.70
2018-05-03T04:42:08.828Z,94743.84
2018-05-03T04:44:34.819Z,94742.08
2018-05-03T04:47:00.839Z,94741.70
2018-05-03T04:49:26.815Z,94742.87
2018-05-03T04:51:52.822Z,94744.64
2018-05-03T04:54:18.810Z,94748.41
2018-05-03T04:56:44.826Z,94743.67
2018-05-03T04:59:10.810Z,94738.72
2018-05-03T05:01:36.815Z,94739.70
2018-05-03T05:04:02.835Z,94738.31
2018-05-03T05:06:28.794Z,94738.49
2018-05-03T05:08:54.786Z,94737.91
2018-05-03T05:11:20.793Z,94735.38
2018-05-03T05:13:46.794Z,94735.95
2018-05-03T05:16:12.804Z,94727.45
2018-05-03T05:18:38.798Z,94725.70
2018-05-03T05:21:04.818Z,94721.92
2018-05-03T05:23:30.807Z,94725.09
2018-05-03T05:25:56.778Z,94720.55
2018-05-03T05:28:22.780Z,94722.15
2018-05-03T05:30:48.835Z,94728.08
2018-05-03T05:33:14.738Z,94717.03
2018-05-03T05:35:40.728Z,94718.19
2018-05-03T05:38:06.755Z,94719.16
2018-05-03T05:40:32.846Z,94717.98
2018-05-03T05:42:58.920Z,94719.37
2018-05-03T05:45:24.978Z,94714.42
2018-05-03T05:47:50.958Z,94718.56
2018-05-03T05:50:16.979Z,94718.16
2018-05-03T05:52:42.953Z,94714.42
2018-05-03T05:55:08.934Z,94712.23
2018-05-03T05:57:35.003Z,94713.22
2018-05-03T06:00:00.947Z,94715.20
2018-05-03T06:02:26.928Z,94722.88
2018-05-03T06:04:52.902Z,94721.13
2018-05-03T06:07:18.883Z,94720.73
2018-05-03T06:09:44.916Z,94717.17
2018-05-03T06:12:10.982Z,94717.97
2018-05-03T06:14:36.929Z,94712.84
2018-05-03T06:17:02.922Z,94710.44
2018-05-03T06:19:28.926Z,94714.00
2018-05-03T06:21:55.136Z,94713.02
2018-05-03T06:24:21.116Z,94710.44
2018-05-03T06:26:47.112Z,94719.13
2018-05-03T06:29:13.102Z,94719.33
2018-05-03T06:31:39.090Z,94719.73
2018-05-03T06:34:05.108Z,94718.34
2018-05-03T06:36:31.064Z,94718.34
2018-05-03T06:38:57.051Z,94714.78
2018-05-03T06:41:23.046Z,94715.36
2018-05-03T06:43:49.033Z,94712.02
2018-05-03T06:46:15.022Z,94716.17
2018-05-03T06:48:41.005Z,94712.02
2018-05-03T06:51:07.028Z,94717.72
2018-05-03T06:53:32.972Z,94718.70
2018-05-03T06:55:58.993Z,94711.22
2018-05-03T06:58:24.946Z,94717.72
2018-05-03T07:00:50.943Z,94713.98
2018-05-03T07:03:16.922Z,94718.33
2018-05-03T07:05:42.962Z,94714.38
2018-05-03T07:08:08.947Z,94715.56
2018-05-03T07:10:34.929Z,94724.05
2018-05-03T07:13:00.916Z,94715.56
2018-05-03T07:15:26.892Z,94721.09
2018-05-03T07:17:52.901Z,94716.95
2018-05-03T07:20:18.910Z,94710.42
2018-05-03T07:22:44.900Z,94706.67
2018-05-03T07:25:10.885Z,94715.36
2018-05-03T07:27:36.880Z,94711.80
2018-05-03T07:30:02.924Z,94708.27
2018-05-03T07:32:28.897Z,94710.42
2018-05-03T07:34:54.900Z,94712.98
2018-05-03T07:37:20.861Z,94712.20
2018-05-03T07:39:46.845Z,94713.18
2018-05-03T07:42:12.830Z,94715.36
2018-05-03T07:44:38.824Z,94707.28
2018-05-03T07:47:04.845Z,94703.34
2018-05-03T07:49:30.826Z,94704.52
2018-05-03T07:51:56.841Z,94694.66
2018-05-03T07:54:22.823Z,94691.89
2018-05-03T07:56:48.816Z,94688.73
2018-05-03T07:59:14.834Z,94690.11
2018-05-03T08:01:40.784Z,94688.33
2018-05-03T08:04:06.818Z,94690.72
2018-05-03T08:06:32.833Z,94685.97
2018-05-03T08:08:58.816Z,94686.38
2018-05-03T08:11:24.824Z,94684.98
2018-05-03T08:13:50.795Z,94685.56
2018-05-03T08:16:16.833Z,94680.27
2018-05-03T08:18:42.823Z,94676.70
2018-05-03T08:21:08.777Z,94674.75
2018-05-03T08:23:34.752Z,94681.25
2018-05-03T08:26:00.736Z,94680.45
2018-05-03T08:28:26.820Z,94678.49
2018-05-03T08:30:52.763Z,94679.06
2018-05-03T08:33:18.785Z,94672.16
2018-05-03T08:35:44.824Z,94671.77
2018-05-03T08:38:10.948Z,94667.83
2018-05-03T08:40:36.926Z,94671.77
2018-05-03T08:43:02.956Z,94672.16
2018-05-03T08:45:28.928Z,94668.83
2018-05-03T08:47:54.891Z,94662.91
2018-05-03T08:50:20.896Z,94661.52
2018-05-03T08:52:46.895Z,94657.20
2018-05-03T08:55:12.898Z,94652.27
2018-05-03T08:57:38.848Z,94652.27
2018-05-03T09:00:04.838Z,94653.64
2018-05-03T09:02:30.804Z,94643.98
2018-05-03T09:04:56.783Z,94645.18
2018-05-03T09:07:22.767Z,94643.20
2018-05-03T09:09:48.776Z,94632.76
2018-05-03T09:12:14.725Z,94626.83
2018-05-03T09:14:40.731Z,94627.61
2018-05-03T09:17:06.713Z,94627.43
2018-05-03T09:19:32.665Z,94633.53
2018-05-03T09:21:58.646Z,94627.03
2018-05-03T09:24:24.641Z,94624.09
2018-05-03T09:26:50.655Z,94626.05
2018-05-03T09:29:16.606Z,94617.59
2018-05-03T09:31:42.600Z,94614.43
2018-05-03T09:34:08.574Z,94616.58
2018-05-03T09:36:34.589Z,94614.83
2018-05-03T09:39:00.553Z,94610.08
2018-05-03T09:41:26.532Z,94616.98
2018-05-03T09:43:52.550Z,94610.69
2018-05-03T09:46:18.510Z,94611.86
2018-05-03T09:48:44.558Z,94608.12
2018-05-03T09:51:10.546Z,94600.41
2018-05-03T09:53:36.489Z,94596.27
2018-05-03T09:56:02.461Z,94590.35
2018-05-03T09:58:28.487Z,94594.31
2018-05-03T10:00:54.427Z,94597.08
2018-05-03T10:03:20.408Z,94594.54
2018-05-03T10:05:46.393Z,94588.62
2018-05-03T10:08:12.366Z,94587.41
2018-05-03T10:10:38.385Z,94588.01
2018-05-03T10:13:04.332Z,94582.48
2018-05-03T10:15:30.319Z,94580.73
2018-05-03T10:17:56.367Z,94585.25
2018-05-03T10:20:22.372Z,94576.96
2018-05-03T10:22:48.396Z,94576.78
2018-05-03T10:25:14.403Z,94563.38
2018-05-03T10:27:40.353Z,94568.91
2018-05-03T10:30:06.396Z,94572.06
2018-05-03T10:32:32.358Z,94568.50
2018-05-03T10:34:58.331Z,94559.23
2018-05-03T10:37:24.289Z,94562.80
2018-05-03T10:39:50.311Z,94555.09
2018-05-03T10:42:16.351Z,94558.26
2018-05-03T10:44:42.330Z,94559.64
2018-05-03T10:47:08.304Z,94545.44
2018-05-03T10:49:34.311Z,94549.98
2018-05-03T10:52:00.269Z,94556.88
2018-05-03T10:54:26.332Z,94555.68
2018-05-03T10:56:52.311Z,94551.16
2018-05-03T10:59:18.298Z,94550.95
2018-05-03T11:01:44.278Z,94553.31
2018-05-03T11:04:10.289Z,94547.98
2018-05-03T11:06:36.243Z,94550.38
2018-05-03T11:09:02.255Z,94552.94
2018-05-03T11:11:28.329Z,94544.25
2018-05-03T11:13:54.342Z,94548.39
2018-05-03T11:16:20.357Z,94546.43
2018-05-03T11:18:46.304Z,94542.90
2018-05-03T11:21:12.343Z,94544.68
2018-05-03T11:23:38.424Z,94547.83
2018-05-03T11:26:04.683Z,94544.09
2018-05-03T11:28:30.668Z,94542.52
2018-05-03T11:30:56.687Z,94539.57
2018-05-03T11:33:22.679Z,94544.31
2018-05-03T11:35:48.635Z,94542.75
2018-05-03T11:38:14.624Z,94544.13
2018-05-03T11:40:40.756Z,94546.89
2018-05-03T11:43:06.774Z,94550.81
2018-05-03T11:45:32.760Z,94542.52
2018-05-03T11:47:58.769Z,94543.52
2018-05-03T11:50:24.713Z,94540.75
2018-05-03T11:52:50.695Z,94546.27
2018-05-03T11:55:16.672Z,94545.87
2018-05-03T11:57:42.693Z,94543.69
2018-05-03T12:00:08.679Z,94557.30
2018-05-03T12:02:34.648Z,94558.47
2018-05-03T12:05:00.627Z,94562.21
2018-05-03T12:07:26.652Z,94574.23
2018-05-03T12:09:52.623Z,94577.22
2018-05-03T12:12:18.777Z,94587.06
2018-05-03T12:14:44.809Z,94593.38
2018-05-03T12:17:10.775Z,94601.83
2018-05-03T12:19:36.799Z,94610.52
2018-05-03T12:22:02.794Z,94624.93
2018-05-03T12:24:28.865Z,94625.51
2018-05-03T12:26:54.869Z,94627.67
2018-05-03T12:29:20.862Z,94621.55
2018-05-03T12:31:46.845Z,94626.30
2018-05-03T12:34:12.859Z,94631.81
2018-05-03T12:36:38.819Z,94629.83
2018-05-03T12:39:04.798Z,94627.67
2018-05-03T12:41:30.827Z,94629.42
2018-05-03T12:43:56.824Z,94627.06
2018-05-03T12:46:22.776Z,94631.81
2018-05-03T12:48:48.792Z,94631.41
2018-05-03T12:51:14.746Z,94627.27
2018-05-03T12:53:40.763Z,94628.66
2018-05-03T12:56:06.732Z,94629.05
2018-05-03T12:58:32.732Z,94632.39
2018-05-03T13:00:58.716Z,94630.61
2018-05-03T13:03:24.726Z,94633.94
2018-05-03T13:05:50.705Z,94624.27
2018-05-03T13:08:16.683Z,94625.65
2018-05-03T13:10:42.703Z,94626.23
2018-05-03T13:13:08.668Z,94625.45
2018-05-03T13:15:34.653Z,94628.80
2018-05-03T13:18:00.659Z,94625.23
2018-05-03T13:20:26.671Z,94627.02
2018-05-03T13:22:52.615Z,94632.12
2018-05-03T13:25:18.599Z,94626.41
2018-05-03T13:27:44.636Z,94633.11
2018-05-03T13:30:10.687Z,94637.27
2018-05-03T13:32:37.403Z,94635.72
2018-05-03T13:35:03.378Z,94634.91
2018-05-03T13:37:30.466Z,94641.41
2018-05-03T13:39:56.402Z,94644.00
2018-05-03T13:42:22.401Z,94641.04
2018-05-03T13:44:48.392Z,94633.94
2018-05-03T13:47:14.412Z,94630.05
2018-05-03T13:49:43.703Z,94639.11
2018-05-03T13:52:09.683Z,94642.50
2018-05-03T13:54:35.692Z,94634.59
2018-05-03T13:57:01.673Z,94638.31
2018-05-03T13:59:27.694Z,94640.68
2018-05-03T14:01:53.699Z,94641.66
2018-05-03T14:04:19.683Z,94642.81
2018-05-03T14:06:45.669Z,94643.82
2018-05-03T14:09:13.842Z,94639.68
2018-05-03T14:11:44.108Z,94632.17
2018-05-03T14:14:10.112Z,94641.23
2018-05-03T14:16:36.105Z,94635.58
2018-05-03T14:19:02.150Z,94633.22
2018-05-03T14:21:28.157Z,94638.73
2018-05-03T14:23:54.130Z,94636.73
2018-05-03T14:26:20.110Z,94635.34
2018-05-03T14:28:46.090Z,94632.59
2018-05-03T14:31:12.070Z,94626.47
2018-05-03T14:33:38.063Z,94624.70
2018-05-03T14:36:04.039Z,94623.91
2018-05-03T14:38:30.019Z,94625.69
2018-05-03T14:40:56.037Z,94614.64
2018-05-03T14:43:21.984Z,94609.54
2018-05-03T14:45:48.004Z,94595.95
2018-05-03T14:48:13.978Z,94599.30
2018-05-03T14:50:40.001Z,94601.66
2018-05-03T14:53:05.951Z,94606.38
2018-05-03T14:55:31.927Z,94604.99
2018-05-03T14:57:57.954Z,94601.25
2018-05-03T15:00:23.965Z,94598.11
2018-05-03T15:02:50.010Z,94601.08
2018-05-03T15:05:15.997Z,94601.08
2018-05-03T15:07:42.512Z,94599.70
2018-05-03T15:10:08.456Z,94605.41
2018-05-03T15:12:34.731Z,94595.59
2018-05-03T15:15:00.704Z,94594.61
2018-05-03T15:17:26.729Z,94592.20
2018-05-03T15:19:52.703Z,94591.44
2018-05-03T15:22:18.727Z,94590.84
2018-05-03T15:24:45.062Z,94594.80
2018-05-03T15:27:11.047Z,94592.86
2018-05-03T15:29:37.064Z,94597.59
2018-05-03T15:32:03.067Z,94599.39
2018-05-03T15:34:29.107Z,94601.38
2018-05-03T15:36:55.081Z,94599.42
2018-05-03T15:39:21.208Z,94595.86
2018-05-03T15:41:47.213Z,94592.13
2018-05-03T15:44:13.199Z,94594.30
2018-05-03T15:46:39.509Z,94591.54
2018-05-03T15:49:05.452Z,94594.50
2018-05-03T15:51:31.558Z,94593.12
2018-05-03T15:53:57.569Z,94599.02
2018-05-03T15:56:23.629Z,94598.45
2018-05-03T15:58:49.628Z,94596.66
2018-05-03T16:01:15.629Z,94594.88
2018-05-03T16:03:41.646Z,94594.28
2018-05-03T16:06:07.620Z,94595.66
2018-05-03T16:08:33.605Z,94599.17
2018-05-03T16:10:59.578Z,94600.76
2018-05-03T16:13:25.562Z,94603.52
2018-05-03T16:15:51.574Z,94604.69
2018-05-03T16:18:17.671Z,94604.92
2018-05-03T16:20:43.679Z,94610.84
2018-05-03T16:23:09.700Z,94610.04
2018-05-03T16:25:35.673Z,94611.84
2018-05-03T16:28:01.685Z,94613.81
2018-05-03T16:30:28.083Z,94611.26
2018-05-03T16:32:54.404Z,94607.52
2018-05-03T16:35:20.406Z,94615.20
2018-05-03T16:37:46.457Z,94612.44
2018-05-03T16:40:12.681Z,94616.98
2018-05-03T16:42:38.727Z,94614.22
2018-05-03T16:45:04.710Z,94617.20
2018-05-03T16:47:30.818Z,94622.91
2018-05-03T16:49:56.820Z,94623.30
2018-05-03T16:52:22.880Z,94636.33
2018-05-03T16:54:49.342Z,94632.97
2018-05-03T16:57:15.345Z,94635.50
2018-05-03T16:59:42.859Z,94638.67
2018-05-03T17:02:08.849Z,94636.30
2018-05-03T17:04:34.823Z,94639.86
2018-05-03T17:07:00.875Z,94644.17
2018-05-03T17:09:26.879Z,94640.61
2018-05-03T17:11:52.914Z,94644.98
2018-05-03T17:14:18.972Z,94648.72
2018-05-03T17:16:44.961Z,94653.45
2018-05-03T17:19:10.991Z,94659.58
2018-05-03T17:21:37.218Z,94659.36
2018-05-03T17:24:03.200Z,94660.16
2018-05-03T17:26:29.267Z,94669.23
2018-05-03T17:28:55.281Z,94663.31
2018-05-03T17:31:21.257Z,94670.41
2018-05-03T17:33:47.354Z,94677.70
2018-05-03T17:36:13.274Z,94681.84
2018-05-03T17:38:39.271Z,94684.80
2018-05-03T17:41:05.256Z,94685.41
2018-05-03T17:43:31.267Z,94688.92
2018-05-03T17:45:57.215Z,94696.05
2018-05-03T17:48:23.187Z,94695.66
2018-05-03T17:50:49.547Z,94705.34
2018-05-03T17:53:15.551Z,94713.64
2018-05-03T17:55:42.639Z,94716.63
2018-05-03T17:58:08.638Z,94725.89
2018-05-03T18:00:35.854Z,94719.78
2018-05-03T18:03:01.839Z,94732.82
2018-05-03T18:05:27.849Z,94734.00
2018-05-03T18:07:53.939Z,94734.20
2018-05-03T18:10:19.927Z,94746.23
2018-05-03T18:12:45.907Z,94750.14
2018-05-03T18:15:11.916Z,94739.50
2018-05-03T18:17:37.908Z,94747.38
2018-05-03T18:20:04.124Z,94745.83
2018-05-03T18:22:30.141Z,94751.17
2018-05-03T18:24:56.125Z,94758.26
2018-05-03T18:27:22.131Z,94756.92
2018-05-03T18:29:48.100Z,94760.09
2018-05-03T18:32:14.103Z,94764.78
2018-05-03T18:34:40.083Z,94763.61
2018-05-03T18:37:06.092Z,94766.37
2018-05-03T18:39:32.076Z,94772.87
2018-05-03T18:41:58.061Z,94776.21
2018-05-03T18:44:24.069Z,94777.59
2018-05-03T18:46:50.052Z,94775.81
2018-05-03T18:49:16.015Z,94783.12
2018-05-03T18:51:41.988Z,94784.32
2018-05-03T18:54:07.999Z,94786.73
2018-05-03T18:56:34.024Z,94782.33
2018-05-03T18:59:00.290Z,94795.02
2018-05-03T19:01:26.275Z,94801.32
2018-05-03T19:03:52.371Z,94802.33
2018-05-03T19:06:19.589Z,94797.17
2018-05-03T19:08:45.711Z,94790.27
2018-05-03T19:11:11.672Z,94788.52
2018-05-03T19:13:37.696Z,94794.05
2018-05-03T19:16:03.683Z,94794.41
2018-05-03T19:18:29.665Z,94809.43
2018-05-03T19:20:55.639Z,94814.16
2018-05-03T19:23:21.649Z,94817.52
2018-05-03T19:25:47.590Z,94814.16
2018-05-03T19:28:13.581Z,94816.91
2018-05-03T19:30:39.591Z,94816.72
2018-05-03T19:33:05.539Z,94817.52
2018-05-03T19:35:31.599Z,94812.37
2018-05-03T19:37:58.955Z,94816.73
2018-05-03T19:40:25.371Z,94808.23
2018-05-03T19:42:51.664Z,94814.95
2018-05-03T19:45:20.181Z,94816.73
2018-05-03T19:47:49.901Z,94822.66
2018-05-03T19:50:21.380Z,94816.34
2018-05-03T19:52:47.777Z,94809.23
2018-05-03T19:55:13.895Z,94807.45
2018-05-03T19:57:45.356Z,94803.45
2018-05-03T20:00:11.997Z,94812.12
2018-05-03T20:02:38.634Z,94803.43
2018-05-03T20:05:05.072Z,94804.01
2018-05-03T20:07:31.400Z,94792.95
2018-05-03T20:09:57.392Z,94790.80
2018-05-03T20:12:23.437Z,94785.68
2018-05-03T20:14:49.411Z,94781.72
2018-05-03T20:17:15.352Z,94797.31
2018-05-03T20:19:41.344Z,94804.39
2018-05-03T20:22:07.356Z,94799.27
2018-05-03T20:24:33.300Z,94808.53
2018-05-03T20:26:59.310Z,94797.31
2018-05-03T20:29:25.325Z,94784.48
2018-05-03T20:31:51.308Z,94779.93
2018-05-03T20:34:17.295Z,94786.03
2018-05-03T20:36:43.258Z,94792.56
2018-05-03T20:39:09.226Z,94787.63
2018-05-03T20:41:35.240Z,94782.90
2018-05-03T20:44:01.198Z,94792.56
2018-05-03T20:46:27.180Z,94779.34
2018-05-03T20:48:53.188Z,94779.34
2018-05-03T20:51:19.152Z,94771.80
2018-05-03T20:53:45.129Z,94755.83
2018-05-03T20:56:11.113Z,94754.63
2018-05-03T20:58:37.087Z,94760.16
2018-05-03T21:01:03.070Z,94763.72
2018-05-03T21:03:29.089Z,94771.43
2018-05-03T21:05:55.080Z,94771.60
2018-05-03T21:08:21.061Z,94772.97
2018-05-03T21:10:47.070Z,94773.77
2018-05-03T21:13:13.018Z,94784.41
2018-05-03T21:15:39.002Z,94778.09
2018-05-03T21:18:04.981Z,94772.56
2018-05-03T21:20:30.996Z,94777.91
2018-05-03T21:22:56.942Z,94777.91
2018-05-03T21:25:22.927Z,94785.22
2018-05-03T21:27:48.910Z,94770.02
2018-05-03T21:30:14.915Z,94769.02
2018-05-03T21:32:40.948Z,94766.25
2018-05-03T21:35:06.913Z,94762.72
2018-05-03T21:37:32.859Z,94764.09
2018-05-03T21:39:58.846Z,94765.08
2018-05-03T21:42:24.822Z,94754.84
2018-05-03T21:44:50.802Z,94758.58
2018-05-03T21:47:16.814Z,94761.52
2018-05-03T21:49:42.818Z,94763.47
2018-05-03T21:52:08.767Z,94762.09
2018-05-03T21:54:34.746Z,94761.49
2018-05-03T21:57:00.783Z,94767.82
2018-05-03T21:59:26.766Z,94767.59
2018-05-03T22:01:52.743Z,94764.23
2018-05-03T22:04:18.721Z,94771.14
2018-05-03T22:06:44.726Z,94769.75
2018-05-03T22:09:10.672Z,94776.26
2018-05-03T22:11:36.652Z,94778.44
2018-05-03T22:14:02.666Z,94766.19
2018-05-03T22:16:28.680Z,94770.33
2018-05-03T22:18:54.625Z,94762.85
2018-05-03T22:21:20.636Z,94761.88
2018-05-03T22:23:46.585Z,94754.56
2018-05-03T22:26:12.563Z,94756.75
2018-05-03T22:28:38.547Z,94754.97
2018-05-03T22:31:04.571Z,94758.70
2018-05-03T22:33:30.547Z,94751.80
2018-05-03T22:35:56.505Z,94755.38
2018-05-03T22:38:22.488Z,94743.75
2018-05-03T22:40:48.499Z,94742.55
2018-05-03T22:43:14.456Z,94745.12
2018-05-03T22:45:40.445Z,94741.73
2018-05-03T22:48:06.422Z,94743.52
2018-05-03T22:50:32.395Z,94747.66
2018-05-03T22:52:58.408Z,94745.11
2018-05-03T22:55:24.386Z,94745.28
2018-05-03T22:57:50.332Z,94749.42
2018-05-03T23:00:16.308Z,94747.24
2018-05-03T23:02:42.290Z,94750.80
2018-05-03T23:05:08.303Z,94746.27
2018-05-03T23:07:34.255Z,94745.09
2018-05-03T23:10:00.263Z,94746.47
2018-05-03T23:12:26.284Z,94742.70
2018-05-03T23:14:52.232Z,94746.47
2018-05-03T23:17:18.240Z,94739.56
2018-05-03T23:19:44.216Z,94735.42
2018-05-03T23:22:10.231Z,94733.84
2018-05-03T23:24:36.178Z,94735.42
2018-05-03T23:27:02.166Z,94730.88
2018-05-03T23:29:28.143Z,94734.23
2018-05-03T23:31:54.133Z,94728.52
2018-05-03T23:34:20.104Z,94726.13
2018-05-03T23:36:46.094Z,94727.72
2018-05-03T23:39:12.138Z,94731.86
2018-05-03T23:41:38.078Z,94731.45
2018-05-03T23:44:04.084Z,94731.45
2018-05-03T23:46:30.065Z,94738.55
2018-05-03T23:48:56.056Z,94728.52
2018-05-03T23:51:22.028Z,94728.52
2018-05-03T23:53:47.984Z,94727.31
2018-05-03T23:56:13.972Z,94731.27
2018-05-03T23:58:39.980Z,94729.88
